createdAt,value
2019-04-22T00:00:55.730Z,11.80
2019-04-22T00:03:32.308Z,11.70
2019-04-22T00:06:14.686Z,11.70
2019-04-22T00:08:49.561Z,11.70
2019-04-22T00:11:26.030Z,11.70
2019-04-22T00:13:55.252Z,11.70
2019-04-22T00:16:14.308Z,11.70
2019-04-22T00:19:01.004Z,11.70
2019-04-22T00:21:20.766Z,11.70
2019-04-22T00:23:54.920Z,11.70
2019-04-22T00:26:23.990Z,11.70
2019-04-22T00:28:49.715Z,11.70
2019-04-22T00:31:34.731Z,11.70
2019-04-22T00:34:06.827Z,11.70
2019-04-22T00:36:40.414Z,11.70
2019-04-22T00:39:07.491Z,11.60
2019-04-22T00:41:40.877Z,11.60
2019-04-22T00:44:15.387Z,11.60
2019-04-22T00:46:39.668Z,11.60
2019-04-22T00:49:52.918Z,11.60
2019-04-22T00:51:44.523Z,11.50
2019-04-22T00:54:08.714Z,11.50
2019-04-22T00:56:32.599Z,11.50
2019-04-22T00:59:08.218Z,11.50
2019-04-22T01:01:39.799Z,11.40
2019-04-22T01:04:14.343Z,11.40
2019-04-22T01:06:41.628Z,11.40
2019-04-22T01:09:10.891Z,11.40
2019-04-22T01:11:37.756Z,11.40
2019-04-22T01:14:09.246Z,11.30
2019-04-22T01:16:42.977Z,11.20
2019-04-22T01:19:07.623Z,11.20
2019-04-22T01:21:41.726Z,11.20
2019-04-22T01:24:08.749Z,11.20
2019-04-22T01:26:34.623Z,11.20
2019-04-22T01:29:00.859Z,11.10
2019-04-22T01:31:25.364Z,11.10
2019-04-22T01:34:07.911Z,11.00
2019-04-22T01:36:45.589Z,10.90
2019-04-22T01:39:18.680Z,10.90
2019-04-22T01:41:58.079Z,10.80
2019-04-22T01:44:34.011Z,10.70
2019-04-22T01:52:00.023Z,10.60
2019-04-22T01:54:27.247Z,10.60
2019-04-22T01:56:46.697Z,10.60
2019-04-22T01:59:11.021Z,10.70
2019-04-22T02:01:50.964Z,10.60
2019-04-22T02:04:26.925Z,10.60
2019-04-22T02:06:52.373Z,10.60
2019-04-22T02:09:24.050Z,10.40
2019-04-22T02:11:56.373Z,10.40
2019-04-22T02:14:20.553Z,10.40
2019-04-22T02:16:50.090Z,10.40
2019-04-22T02:19:22.740Z,10.40
2019-04-22T02:21:51.106Z,10.50
2019-04-22T02:24:28.237Z,10.50
2019-04-22T02:29:26.373Z,10.40
2019-04-22T02:32:04.861Z,10.40
2019-04-22T02:42:00.757Z,10.20
2019-04-22T02:47:11.976Z,10.00
2019-04-22T02:49:39.201Z,10.10
2019-04-22T02:51:52.261Z,10.10
2019-04-22T02:56:56.438Z,10.10
2019-04-22T02:59:34.453Z,10.10
2019-04-22T03:01:54.161Z,10.00
2019-04-22T03:09:35.698Z,10.00
2019-04-22T03:12:11.932Z,9.90
2019-04-22T03:14:35.627Z,9.90
2019-04-22T03:17:17.690Z,9.90
2019-04-22T03:35:31.581Z,9.80
2019-04-22T03:37:48.512Z,9.80
2019-04-22T03:42:52.425Z,9.70
2019-04-22T03:45:19.781Z,9.70
2019-04-22T03:47:47.841Z,9.60
2019-04-22T03:52:40.784Z,9.50
2019-04-22T03:55:07.748Z,9.60
2019-04-22T03:57:50.038Z,9.60
2019-04-22T04:00:19.610Z,9.70
2019-04-22T04:02:46.021Z,9.60
2019-04-22T04:05:24.291Z,9.60
2019-04-22T04:07:47.515Z,9.60
2019-04-22T04:10:21.535Z,9.60
2019-04-22T04:12:51.193Z,9.60
2019-04-22T04:20:32.212Z,9.50
2019-04-22T04:30:18.946Z,9.50
2019-04-22T04:32:52.481Z,9.50
2019-04-22T04:35:25.660Z,9.40
2019-04-22T04:37:55.723Z,9.50
2019-04-22T04:40:20.629Z,9.50
2019-04-22T04:42:46.182Z,9.40
2019-04-22T04:45:40.519Z,9.40
2019-04-22T04:50:12.296Z,9.50
2019-04-22T04:53:04.535Z,9.50
2019-04-22T04:55:28.492Z,9.50
2019-04-22T05:00:39.403Z,9.60
2019-04-22T05:03:00.643Z,9.60
2019-04-22T05:07:48.589Z,9.60
2019-04-22T05:10:26.413Z,9.60
2019-04-22T05:15:21.261Z,9.70
2019-04-22T05:17:55.516Z,9.70
2019-04-22T05:30:23.669Z,9.80
2019-04-22T05:32:44.605Z,10.00
2019-04-22T05:35:14.383Z,10.50
2019-04-22T05:40:22.018Z,11.10
2019-04-22T05:42:42.677Z,11.20
2019-04-22T05:45:17.899Z,11.70
2019-04-22T05:47:46.450Z,12.50
2019-04-22T05:50:12.994Z,13.20
2019-04-22T05:52:51.137Z,13.60
2019-04-22T05:55:26.131Z,13.70
2019-04-22T05:57:51.190Z,13.50
2019-04-22T06:02:56.928Z,12.60
2019-04-22T06:05:29.521Z,12.20
2019-04-22T06:07:59.164Z,12.00
2019-04-22T06:10:35.798Z,12.10
2019-04-22T06:12:54.844Z,12.40
2019-04-22T06:15:26.271Z,12.70
2019-04-22T06:18:12.400Z,12.90
2019-04-22T06:20:36.951Z,12.90
2019-04-22T06:23:04.561Z,13.00
2019-04-22T06:25:54.976Z,13.00
2019-04-22T06:28:15.616Z,12.90
2019-04-22T06:30:39.960Z,12.90
2019-04-22T06:33:11.653Z,13.00
2019-04-22T06:35:47.348Z,13.20
2019-04-22T06:38:28.569Z,13.50
2019-04-22T06:40:41.865Z,13.80
2019-04-22T06:43:13.730Z,14.00
2019-04-22T06:45:35.339Z,14.10
2019-04-22T06:53:09.061Z,14.60
2019-04-22T06:55:41.344Z,14.70
2019-04-22T06:58:10.636Z,14.90
2019-04-22T07:00:41.590Z,15.10
2019-04-22T07:03:30.116Z,15.10
2019-04-22T07:05:41.279Z,15.30
2019-04-22T07:08:30.369Z,15.40
2019-04-22T07:10:49.100Z,15.50
2019-04-22T07:13:11.033Z,15.30
2019-04-22T07:18:19.752Z,15.60
2019-04-22T07:20:44.229Z,15.90
2019-04-22T07:23:25.768Z,15.90
2019-04-22T07:28:17.736Z,16.50
2019-04-22T07:30:44.797Z,16.60
2019-04-22T07:33:34.900Z,16.80
2019-04-22T07:36:02.695Z,16.70
2019-04-22T07:38:17.568Z,16.50
2019-04-22T07:40:51.847Z,15.90
2019-04-22T07:43:19.907Z,15.90
2019-04-22T07:46:00.005Z,15.70
2019-04-22T07:48:26.136Z,15.10
2019-04-22T07:51:07.525Z,14.60
2019-04-22T07:53:16.853Z,14.20
2019-04-22T07:55:45.349Z,14.00
2019-04-22T07:58:18.675Z,14.00
2019-04-22T08:00:53.344Z,14.10
2019-04-22T08:03:29.312Z,14.00
2019-04-22T08:06:02.944Z,14.00
2019-04-22T08:10:49.642Z,14.20
2019-04-22T08:13:19.684Z,14.30
2019-04-22T08:15:54.185Z,14.50
2019-04-22T08:18:22.054Z,14.50
2019-04-22T08:23:24.312Z,14.60
2019-04-22T08:25:49.258Z,14.70
2019-04-22T08:28:26.597Z,14.70
2019-04-22T08:30:53.607Z,14.50
2019-04-22T08:33:22.168Z,14.50
2019-04-22T08:36:07.208Z,14.50
2019-04-22T08:38:28.708Z,14.40
2019-04-22T08:41:24.805Z,14.40
2019-04-22T08:46:17.034Z,14.30
2019-04-22T08:48:51.520Z,14.40
2019-04-22T08:51:21.030Z,14.50
2019-04-22T08:53:55.960Z,14.60
2019-04-22T08:58:53.202Z,14.70
2019-04-22T09:01:20.890Z,14.70
2019-04-22T09:03:49.259Z,14.80
2019-04-22T09:08:50.497Z,14.90
2019-04-22T09:11:20.211Z,14.80
2019-04-22T09:13:49.840Z,14.80
2019-04-22T09:16:23.388Z,14.90
2019-04-22T09:18:48.745Z,15.00
2019-04-22T09:21:34.622Z,15.20
2019-04-22T09:23:57.180Z,15.40
2019-04-22T09:26:27.033Z,15.60
2019-04-22T09:28:54.531Z,15.70
2019-04-22T09:31:19.057Z,15.70
2019-04-22T09:33:59.655Z,15.60
2019-04-22T09:36:22.370Z,15.50
2019-04-22T09:38:46.898Z,15.60
2019-04-22T09:41:24.558Z,15.70
2019-04-22T09:43:53.648Z,15.60
2019-04-22T09:46:21.570Z,15.40
2019-04-22T09:48:55.375Z,15.40
2019-04-22T09:51:18.665Z,15.50
2019-04-22T09:53:54.727Z,15.60
2019-04-22T09:56:24.099Z,15.70
2019-04-22T09:58:49.422Z,15.80
2019-04-22T10:03:55.991Z,15.90
2019-04-22T10:06:27.840Z,16.00
2019-04-22T10:09:12.973Z,16.00
2019-04-22T10:11:26.953Z,16.10
2019-04-22T10:13:55.579Z,16.10
2019-04-22T10:16:25.352Z,16.00
2019-04-22T10:18:52.943Z,16.00
2019-04-22T10:21:27.316Z,16.20
2019-04-22T10:23:54.790Z,16.40
2019-04-22T10:26:31.727Z,16.50
2019-04-22T10:31:24.932Z,16.70
2019-04-22T10:33:45.241Z,16.80
2019-04-22T10:35:59.237Z,16.90
2019-04-22T10:38:28.377Z,17.00
2019-04-22T10:40:58.570Z,16.90
2019-04-22T10:43:27.559Z,16.80
2019-04-22T10:45:57.661Z,16.70
2019-04-22T10:48:26.318Z,16.90
2019-04-22T10:50:54.876Z,17.00
2019-04-22T10:53:23.791Z,17.20
2019-04-22T10:55:52.346Z,17.10
2019-04-22T10:58:21.052Z,17.10
2019-04-22T11:00:52.362Z,17.20
2019-04-22T11:03:22.319Z,17.10
2019-04-22T11:05:52.548Z,17.20
2019-04-22T11:08:31.620Z,17.30
2019-04-22T11:11:07.080Z,17.30
2019-04-22T11:13:22.204Z,17.30
2019-04-22T11:15:51.026Z,17.20
2019-04-22T11:18:19.960Z,17.30
2019-04-22T11:20:49.545Z,17.40
2019-04-22T11:23:18.637Z,17.50
2019-04-22T11:25:47.987Z,17.60
2019-04-22T11:28:17.846Z,17.60
2019-04-22T11:30:46.478Z,17.70
2019-04-22T11:33:16.253Z,17.80
2019-04-22T11:35:45.900Z,17.60
2019-04-22T11:38:15.063Z,17.50
2019-04-22T11:40:49.776Z,17.50
2019-04-22T11:43:14.565Z,17.50
2019-04-22T11:45:43.119Z,17.60
2019-04-22T11:48:11.551Z,17.80
2019-04-22T11:50:40.154Z,17.60
2019-04-22T11:53:08.966Z,17.50
2019-04-22T11:55:37.660Z,17.60
2019-04-22T11:58:06.780Z,17.70
2019-04-22T12:00:37.034Z,17.60
2019-04-22T12:03:07.107Z,17.70
2019-04-22T12:05:35.918Z,17.70
2019-04-22T12:08:04.944Z,17.70
2019-04-22T12:10:41.195Z,17.70
2019-04-22T12:13:03.980Z,17.70
2019-04-22T12:15:32.978Z,17.70
2019-04-22T12:18:01.539Z,17.80
2019-04-22T12:20:29.990Z,17.90
2019-04-22T12:22:58.986Z,17.80
2019-04-22T12:25:34.834Z,17.90
2019-04-22T12:27:59.130Z,18.00
2019-04-22T12:30:29.831Z,18.00
2019-04-22T12:32:58.379Z,18.00
2019-04-22T12:35:28.289Z,18.00
2019-04-22T12:38:01.466Z,18.00
2019-04-22T12:40:38.285Z,18.00
2019-04-22T12:42:57.661Z,18.00
2019-04-22T12:45:26.654Z,18.20
2019-04-22T12:47:55.955Z,18.40
2019-04-22T12:50:31.078Z,18.50
2019-04-22T12:52:59.410Z,18.30
2019-04-22T12:55:26.004Z,18.30
2019-04-22T12:57:57.447Z,18.30
2019-04-22T13:00:26.350Z,18.50
2019-04-22T13:02:55.022Z,18.50
2019-04-22T13:05:24.951Z,18.40
2019-04-22T13:07:53.816Z,18.20
2019-04-22T13:10:24.212Z,18.20
2019-04-22T13:12:53.024Z,18.30
2019-04-22T13:15:22.157Z,18.30
2019-04-22T13:18:03.195Z,18.30
2019-04-22T13:20:24.188Z,18.40
2019-04-22T13:22:52.879Z,18.30
2019-04-22T13:25:24.823Z,18.40
2019-04-22T13:27:53.317Z,18.50
2019-04-22T13:30:22.916Z,18.60
2019-04-22T13:32:52.665Z,18.70
2019-04-22T13:35:22.224Z,18.70
2019-04-22T13:37:53.002Z,18.80
2019-04-22T13:40:23.195Z,18.80
2019-04-22T13:42:53.416Z,18.80
2019-04-22T13:45:22.191Z,18.80
2019-04-22T13:48:11.158Z,18.80
2019-04-22T13:53:42.603Z,18.60
2019-04-22T13:55:53.238Z,18.60
2019-04-22T13:58:05.176Z,18.70
2019-04-22T14:00:26.908Z,18.60
2019-04-22T14:03:13.357Z,18.60
2019-04-22T14:05:44.668Z,18.70
2019-04-22T14:08:14.594Z,18.70
2019-04-22T14:10:44.723Z,18.60
2019-04-22T14:13:14.044Z,18.60
2019-04-22T14:15:43.839Z,18.40
2019-04-22T14:18:12.863Z,18.20
2019-04-22T14:20:42.497Z,18.20
2019-04-22T14:23:12.281Z,18.10
2019-04-22T14:25:42.809Z,18.20
2019-04-22T14:28:16.919Z,18.10
2019-04-22T14:30:42.506Z,18.10
2019-04-22T14:33:12.136Z,18.10
2019-04-22T14:35:41.614Z,18.00
2019-04-22T14:38:10.265Z,18.00
2019-04-22T14:40:40.969Z,17.90
2019-04-22T14:43:28.961Z,17.90
2019-04-22T14:46:08.062Z,18.00
2019-04-22T14:48:38.775Z,18.00
2019-04-22T14:50:56.017Z,17.90
2019-04-22T14:53:30.827Z,17.90
2019-04-22T14:55:40.352Z,17.70
2019-04-22T14:58:09.096Z,17.70
2019-04-22T15:00:38.161Z,17.60
2019-04-22T15:03:07.998Z,17.40
2019-04-22T15:05:37.162Z,17.30
2019-04-22T15:08:06.891Z,17.40
2019-04-22T15:10:36.092Z,17.40
2019-04-22T15:13:05.445Z,17.30
2019-04-22T15:15:42.048Z,17.20
2019-04-22T15:18:22.131Z,17.10
2019-04-22T15:21:04.954Z,17.00
2019-04-22T15:23:34.755Z,17.00
2019-04-22T15:26:04.560Z,17.00
2019-04-22T15:28:33.440Z,17.00
2019-04-22T15:31:01.939Z,16.90
2019-04-22T15:33:30.383Z,16.90
2019-04-22T15:35:59.079Z,16.90
2019-04-22T15:38:28.252Z,16.90
2019-04-22T15:40:56.861Z,17.00
2019-04-22T15:43:27.980Z,17.10
2019-04-22T15:45:57.117Z,17.00
2019-04-22T15:48:27.114Z,16.90
2019-04-22T15:50:55.785Z,16.90
2019-04-22T15:53:25.413Z,16.80
2019-04-22T15:55:54.662Z,16.80
2019-04-22T15:58:23.843Z,16.80
2019-04-22T16:01:04.196Z,16.70
2019-04-22T16:03:22.832Z,16.70
2019-04-22T16:05:52.248Z,16.70
2019-04-22T16:08:21.364Z,16.70
2019-04-22T16:10:49.943Z,16.70
2019-04-22T16:13:24.288Z,16.70
2019-04-22T16:15:49.044Z,16.70
2019-04-22T16:18:18.259Z,16.70
2019-04-22T16:20:48.099Z,16.70
2019-04-22T16:23:20.828Z,16.70
2019-04-22T16:25:51.297Z,16.70
2019-04-22T16:28:19.881Z,16.70
2019-04-22T16:30:48.958Z,16.70
2019-04-22T16:33:17.639Z,16.70
2019-04-22T16:35:46.783Z,16.70
2019-04-22T16:38:15.323Z,16.60
2019-04-22T16:40:44.984Z,16.60
2019-04-22T16:43:13.660Z,16.60
2019-04-22T16:45:43.405Z,16.60
2019-04-22T16:48:13.553Z,16.60
2019-04-22T16:50:45.044Z,16.60
2019-04-22T16:53:14.198Z,16.50
2019-04-22T16:55:42.739Z,16.50
2019-04-22T16:58:12.670Z,16.50
2019-04-22T17:00:42.652Z,16.50
2019-04-22T17:03:22.590Z,16.40
2019-04-22T17:06:11.799Z,16.40
2019-04-22T17:08:40.417Z,16.40
2019-04-22T17:11:09.756Z,16.30
2019-04-22T17:13:39.900Z,16.30
2019-04-22T17:16:09.922Z,16.20
2019-04-22T17:18:39.383Z,16.10
2019-04-22T17:21:10.445Z,16.10
2019-04-22T17:23:38.585Z,16.10
2019-04-22T17:26:08.378Z,16.10
2019-04-22T17:28:37.430Z,16.00
2019-04-22T17:31:06.638Z,16.00
2019-04-22T17:33:35.275Z,16.00
2019-04-22T17:36:05.266Z,15.90
2019-04-22T17:38:44.032Z,15.90
2019-04-22T17:41:20.256Z,15.90
2019-04-22T17:44:06.568Z,15.80
2019-04-22T17:46:24.737Z,15.80
2019-04-22T17:48:58.445Z,15.70
2019-04-22T17:51:42.385Z,15.60
2019-04-22T17:54:02.490Z,15.60
2019-04-22T17:56:30.840Z,15.50
2019-04-22T17:59:02.445Z,15.50
2019-04-22T18:01:35.701Z,15.40
2019-04-22T18:03:49.653Z,15.40
2019-04-22T18:06:45.293Z,15.40
2019-04-22T18:09:01.842Z,15.30
2019-04-22T18:11:43.001Z,15.30
2019-04-22T18:14:25.658Z,15.30
2019-04-22T18:16:37.267Z,15.20
2019-04-22T18:19:04.132Z,15.20
2019-04-22T18:21:31.929Z,15.20
2019-04-22T18:24:00.501Z,15.10
2019-04-22T18:26:30.678Z,15.10
2019-04-22T18:29:07.390Z,15.00
2019-04-22T18:31:29.563Z,15.00
2019-04-22T18:34:02.078Z,15.00
2019-04-22T18:36:35.369Z,14.90
2019-04-22T18:39:09.882Z,14.90
2019-04-22T18:41:34.064Z,14.90
2019-04-22T18:44:12.931Z,14.80
2019-04-22T18:46:36.575Z,14.80
2019-04-22T18:49:06.872Z,14.80
2019-04-22T18:51:46.836Z,14.70
2019-04-22T18:54:32.187Z,14.70
2019-04-22T18:57:05.335Z,14.60
2019-04-22T18:59:20.154Z,14.60
2019-04-22T19:01:43.900Z,14.60
2019-04-22T19:04:19.369Z,14.50
2019-04-22T19:06:58.648Z,14.50
2019-04-22T19:09:45.354Z,14.50
2019-04-22T19:12:18.124Z,14.40
2019-04-22T19:14:43.593Z,14.40
2019-04-22T19:17:19.055Z,14.30
2019-04-22T19:19:56.200Z,14.30
2019-04-22T19:22:03.526Z,14.30
2019-04-22T19:24:34.430Z,14.20
2019-04-22T19:27:23.627Z,14.20
2019-04-22T19:29:39.821Z,14.20
2019-04-22T19:32:06.970Z,14.10
2019-04-22T19:34:36.753Z,14.10
2019-04-22T19:37:10.882Z,14.10
2019-04-22T19:39:42.933Z,14.00
2019-04-22T19:42:16.789Z,14.00
2019-04-22T19:44:37.819Z,14.00
2019-04-22T19:47:24.006Z,13.90
2019-04-22T19:49:49.533Z,13.80
2019-04-22T19:52:11.090Z,13.90
2019-04-22T19:54:38.942Z,13.80
2019-04-22T19:57:05.772Z,13.80
2019-04-22T19:59:41.648Z,13.80
2019-04-22T20:02:28.918Z,13.70
2019-04-22T20:05:11.098Z,13.70
2019-04-22T20:07:40.599Z,13.70
2019-04-22T20:10:11.832Z,13.70
2019-04-22T20:12:41.044Z,13.70
2019-04-22T20:15:10.091Z,13.60
2019-04-22T20:17:57.311Z,13.60
2019-04-22T20:20:19.660Z,13.60
2019-04-22T20:22:37.080Z,13.70
2019-04-22T20:25:00.514Z,13.60
2019-04-22T20:27:50.201Z,13.60
2019-04-22T20:30:14.440Z,13.60
2019-04-22T20:32:41.941Z,13.50
2019-04-22T20:35:15.770Z,13.60
2019-04-22T20:37:49.707Z,13.50
2019-04-22T20:40:16.894Z,13.60
2019-04-22T20:42:48.389Z,13.50
2019-04-22T20:45:19.581Z,13.60
2019-04-22T20:47:37.850Z,13.50
2019-04-22T20:50:21.428Z,13.60
2019-04-22T20:52:53.984Z,13.60
2019-04-22T20:55:13.354Z,13.60
2019-04-22T20:57:48.276Z,13.60
2019-04-22T21:00:11.557Z,13.70
2019-04-22T21:02:37.471Z,13.70
2019-04-22T21:05:04.296Z,13.60
2019-04-22T21:07:38.521Z,13.60
2019-04-22T21:10:11.558Z,13.60
2019-04-22T21:12:36.295Z,13.60
2019-04-22T21:15:19.353Z,13.60
2019-04-22T21:17:45.914Z,13.60
2019-04-22T21:20:17.253Z,13.60
2019-04-22T21:22:50.820Z,13.60
2019-04-22T21:25:10.627Z,13.60
2019-04-22T21:27:51.155Z,13.60
2019-04-22T21:30:10.759Z,13.60
2019-04-22T21:32:45.090Z,13.50
2019-04-22T21:35:38.257Z,13.50
2019-04-22T21:37:51.611Z,13.50
2019-04-22T21:40:20.005Z,13.50
2019-04-22T21:42:53.758Z,13.50
2019-04-22T21:45:14.726Z,13.40
2019-04-22T21:47:57.142Z,13.40
2019-04-22T21:50:35.454Z,13.40
2019-04-22T21:52:56.842Z,13.30
2019-04-22T21:55:24.426Z,13.30
2019-04-22T21:58:04.839Z,13.30
2019-04-22T22:00:46.136Z,13.30
2019-04-22T22:03:11.716Z,13.30
2019-04-22T22:05:27.156Z,13.30
2019-04-22T22:07:53.481Z,13.30
2019-04-22T22:10:33.893Z,13.30
2019-04-22T22:13:09.715Z,13.30
2019-04-22T22:15:31.838Z,13.30
2019-04-22T22:17:58.709Z,13.30
2019-04-22T22:20:30.621Z,13.30
2019-04-22T22:23:09.177Z,13.40
2019-04-22T22:25:28.041Z,13.40
2019-04-22T22:28:07.754Z,13.40
2019-04-22T22:33:05.710Z,13.40
2019-04-22T22:35:36.095Z,13.40
2019-04-22T22:38:03.009Z,13.40
2019-04-22T22:40:19.953Z,13.40
2019-04-22T22:42:49.308Z,13.40
2019-04-22T22:45:26.614Z,13.40
2019-04-22T22:48:16.949Z,13.40
2019-04-22T22:50:34.701Z,13.40
2019-04-22T22:53:15.436Z,13.30
2019-04-22T22:55:35.443Z,13.30
2019-04-22T22:58:10.344Z,13.30
2019-04-22T23:00:35.660Z,13.30
2019-04-22T23:03:36.714Z,13.30
2019-04-22T23:05:49.252Z,13.30
2019-04-22T23:08:17.477Z,13.30
2019-04-22T23:10:52.859Z,13.20
2019-04-22T23:13:20.447Z,13.20
2019-04-22T23:15:33.287Z,13.20
2019-04-22T23:17:50.039Z,13.20
2019-04-22T23:20:28.974Z,13.20
2019-04-22T23:23:13.767Z,13.10
2019-04-22T23:25:44.774Z,13.10
2019-04-22T23:28:13.392Z,13.10
2019-04-22T23:30:38.144Z,13.10
2019-04-22T23:33:21.823Z,13.10
2019-04-22T23:36:03.072Z,13.10
2019-04-22T23:38:38.773Z,13.00
2019-04-22T23:41:22.358Z,13.00
2019-04-22T23:43:48.446Z,13.00
2019-04-22T23:46:19.013Z,13.00
2019-04-22T23:48:33.886Z,12.90
2019-04-22T23:51:13.774Z,12.90
2019-04-22T23:56:16.941Z,12.80
2019-04-22T23:58:52.614Z,12.80
